METAR Data
IDs: Format: Raw Decoded Include TAF

Data at: 2236 UTC 25 Oct 2021

PFCL 251956Z AUTO 36018KT 10SM CLR M01/M06 A2925 RMK AO2 SLP898 T10061061 FZRANO TSNO
PFCL 251856Z AUTO 01018G22KT 10SM CLR M02/M06 A2924 RMK AO2 SLP895 T10171056 FZRANO TSNO
PFCL 251656Z AUTO 01016G22KT 10SM BKN034 M02/M06 A2923 RMK AO2 SLP893 T10171056 FZRANO TSNO
PFCL 251556Z AUTO 02017G21KT 10SM CLR M02/M06 A2923 RMK AO2 SLP893 T10221056 FZRANO TSNO
PFCL 251256Z AUTO 02016KT 10SM CLR M02/M05 A2925 RMK AO2 SLP898 T10221050 FZRANO TSNO
PFCL 251156Z AUTO 01014KT 10SM FEW050 M02/M05 A2926 RMK AO2 SLP902 T10221050 11006 21022 56014 FZRANO TSNO
PFCL 251056Z AUTO 01015KT 10SM OVC050 M02/M05 A2927 RMK AO2 SLP907 T10171050 FZRANO TSNO
PFCL 250956Z AUTO 01013KT 10SM OVC050 M01/M04 A2929 RMK AO2 SLP911 T10111044 FZRANO TSNO
PFCL 250856Z AUTO 02011KT 10SM OVC055 M01/M04 A2930 RMK AO2 SLP916 T10111044 400281011 56014 FZRANO TSNO
PFCL 250756Z AUTO 02011KT 10SM OVC055 M01/M04 A2931 RMK AO2 SLP920 T10061044 FZRANO TSNO
PFCL 250656Z AUTO 03007KT 10SM OVC055 M01/M03 A2933 RMK AO2 SLP925 T10061028 FZRANO TSNO
PFCL 250556Z AUTO 03008KT 10SM OVC050 M01/M02 A2934 RMK AO2 SLP929 T10061022 10028 21006 56017 FZRANO TSNO
PFCL 250456Z AUTO 05008KT 10SM OVC050 00/M03 A2936 RMK AO2 SLP934 T00001028 FZRANO TSNO
PFCL 250056Z AUTO 08007KT 10SM OVC050 02/M02 A2944 RMK AO2 SLP962 T00221022 FZRANO TSNO
PFCL 242356Z AUTO 05008KT 10SM OVC055 02/M03 A2946 RMK AO2 SLP969 T00221028 10028 20011 58019 FZRANO TSNO
PFCL 242256Z AUTO 03005KT 10SM OVC050 02/M02 A2949 RMK AO2 SLP978 T00221022 FZRANO TSNO
PFCL 242156Z AUTO 04005KT 10SM OVC050 02/M02 A2950 RMK AO2 SLP983 T00221017 FZRANO TSNO
PFCL 242056Z AUTO 01003KT 10SM OVC050 02/M02 A2952 RMK AO2 SLP988 T00171017 55000 FZRANO TSNO
PFCL 241956Z AUTO 00000KT 10SM OVC050 01/M01 A2952 RMK AO2 SLP989 T00111011 FZRANO TSNO
PFCL 241756Z AUTO 33005KT 10SM OVC048 01/M02 A2952 RMK AO2 SLP988 T00111022 10017 20006 58003 FZRANO TSNO
PFCL 241656Z AUTO 34005KT 10SM OVC050 01/M02 A2953 RMK AO2 SLP992 T00111022 FZRANO TSNO
PFCL 241556Z AUTO 32003KT 10SM BKN055 OVC110 01/M02 A2953 RMK AO2 SLP994 T00111017 FZRANO TSNO
PFCL 241456Z AUTO 27004KT 10SM CLR 01/M01 A2952 RMK AO2 SLP991 T00111011 53012 FZRANO TSNO
PFCL 241356Z AUTO 29005KT 10SM CLR 01/M02 A2951 RMK AO2 SLP986 T00111017 FZRANO TSNO
PFCL 241256Z AUTO 27006KT 10SM CLR 01/M02 A2950 RMK AO2 SLP983 T00111017 FZRANO TSNO
PFCL 241156Z AUTO 26007KT 10SM CLR 01/M02 A2949 RMK AO2 SLP979 T00061022 10017 20000 53022 FZRANO TSNO
PFCL 241056Z AUTO 30003KT 10SM FEW120 01/M03 A2947 RMK AO2 SLP972 T00111028 FZRANO TSNO